sensor_id;sensor_type;location;lat;lon;timestamp;P1;durP1;ratioP1;P2;durP2;ratioP2
44328;SDS011;30039;51.462;6.892;2023-04-15T00:02:26;10.57;;;5.78;;
44328;SDS011;30039;51.462;6.892;2023-04-15T00:05:17;10.18;;;5.43;;
44328;SDS011;30039;51.462;6.892;2023-04-15T00:08:05;9.45;;;5.45;;
44328;SDS011;30039;51.462;6.892;2023-04-15T00:11:03;7.43;;;5.15;;
44328;SDS011;30039;51.462;6.892;2023-04-15T00:13:52;11.95;;;5.32;;
44328;SDS011;30039;51.462;6.892;2023-04-15T00:16:41;11.43;;;5.35;;
44328;SDS011;30039;51.462;6.892;2023-04-15T00:19:29;11.23;;;5.45;;
44328;SDS011;30039;51.462;6.892;2023-04-15T00:22:15;11.02;;;5.47;;
44328;SDS011;30039;51.462;6.892;2023-04-15T00:25:02;9.20;;;5.57;;
44328;SDS011;30039;51.462;6.892;2023-04-15T00:27:48;10.27;;;6.10;;
44328;SDS011;30039;51.462;6.892;2023-04-15T00:30:34;10.48;;;5.20;;
44328;SDS011;30039;51.462;6.892;2023-04-15T00:33:19;8.43;;;5.35;;
44328;SDS011;30039;51.462;6.892;2023-04-15T00:36:06;11.40;;;6.40;;
44328;SDS011;30039;51.462;6.892;2023-04-15T00:38:54;13.23;;;5.75;;
44328;SDS011;30039;51.462;6.892;2023-04-15T00:41:39;10.20;;;5.65;;
44328;SDS011;30039;51.462;6.892;2023-04-15T00:44:25;10.15;;;5.68;;
44328;SDS011;30039;51.462;6.892;2023-04-15T00:47:11;10.52;;;5.65;;
44328;SDS011;30039;51.462;6.892;2023-04-15T00:49:57;10.20;;;5.45;;
44328;SDS011;30039;51.462;6.892;2023-04-15T00:52:43;6.95;;;5.03;;
44328;SDS011;30039;51.462;6.892;2023-04-15T00:55:29;12.23;;;5.68;;
44328;SDS011;30039;51.462;6.892;2023-04-15T00:58:15;10.20;;;5.90;;
44328;SDS011;30039;51.462;6.892;2023-04-15T01:01:01;9.63;;;5.75;;
44328;SDS011;30039;51.462;6.892;2023-04-15T01:03:49;8.57;;;5.43;;
44328;SDS011;30039;51.462;6.892;2023-04-15T01:06:35;14.10;;;5.88;;
44328;SDS011;30039;51.462;6.892;2023-04-15T01:09:21;10.35;;;5.97;;
44328;SDS011;30039;51.462;6.892;2023-04-15T01:12:07;10.30;;;5.65;;
44328;SDS011;30039;51.462;6.892;2023-04-15T01:14:55;9.50;;;5.40;;
44328;SDS011;30039;51.462;6.892;2023-04-15T01:17:41;9.70;;;6.00;;
44328;SDS011;30039;51.462;6.892;2023-04-15T01:20:28;8.80;;;5.78;;
44328;SDS011;30039;51.462;6.892;2023-04-15T01:23:14;11.43;;;5.47;;
44328;SDS011;30039;51.462;6.892;2023-04-15T01:26:01;9.63;;;5.70;;
44328;SDS011;30039;51.462;6.892;2023-04-15T01:28:48;12.13;;;5.68;;
44328;SDS011;30039;51.462;6.892;2023-04-15T01:31:33;10.98;;;5.78;;
44328;SDS011;30039;51.462;6.892;2023-04-15T01:34:19;8.57;;;5.32;;
44328;SDS011;30039;51.462;6.892;2023-04-15T01:37:05;11.23;;;6.00;;
44328;SDS011;30039;51.462;6.892;2023-04-15T01:39:51;11.20;;;6.40;;
44328;SDS011;30039;51.462;6.892;2023-04-15T01:42:38;8.77;;;6.28;;
44328;SDS011;30039;51.462;6.892;2023-04-15T01:45:23;11.38;;;6.22;;
44328;SDS011;30039;51.462;6.892;2023-04-15T01:48:09;14.20;;;6.72;;
44328;SDS011;30039;51.462;6.892;2023-04-15T01:50:55;13.30;;;6.40;;
44328;SDS011;30039;51.462;6.892;2023-04-15T01:53:42;10.90;;;6.68;;
44328;SDS011;30039;51.462;6.892;2023-04-15T01:56:30;10.18;;;7.20;;
44328;SDS011;30039;51.462;6.892;2023-04-15T01:59:15;8.77;;;6.25;;
44328;SDS011;30039;51.462;6.892;2023-04-15T02:02:01;11.65;;;6.90;;
44328;SDS011;30039;51.462;6.892;2023-04-15T02:04:47;11.55;;;6.68;;
44328;SDS011;30039;51.462;6.892;2023-04-15T02:07:33;9.15;;;6.32;;
44328;SDS011;30039;51.462;6.892;2023-04-15T02:10:18;8.93;;;6.22;;
44328;SDS011;30039;51.462;6.892;2023-04-15T02:13:04;12.75;;;7.22;;
44328;SDS011;30039;51.462;6.892;2023-04-15T02:15:50;9.32;;;6.45;;
44328;SDS011;30039;51.462;6.892;2023-04-15T02:18:38;10.63;;;6.65;;
44328;SDS011;30039;51.462;6.892;2023-04-15T02:21:25;10.45;;;6.78;;
44328;SDS011;30039;51.462;6.892;2023-04-15T02:24:11;10.50;;;7.07;;
44328;SDS011;30039;51.462;6.892;2023-04-15T02:26:56;10.95;;;6.28;;
44328;SDS011;30039;51.462;6.892;2023-04-15T02:29:45;10.55;;;6.70;;
44328;SDS011;30039;51.462;6.892;2023-04-15T02:32:31;8.52;;;6.38;;
44328;SDS011;30039;51.462;6.892;2023-04-15T02:35:16;9.05;;;6.88;;
44328;SDS011;30039;51.462;6.892;2023-04-15T02:38:05;12.00;;;6.90;;
44328;SDS011;30039;51.462;6.892;2023-04-15T02:40:51;9.57;;;6.63;;
44328;SDS011;30039;51.462;6.892;2023-04-15T02:43:36;9.25;;;6.70;;
44328;SDS011;30039;51.462;6.892;2023-04-15T02:46:24;9.13;;;6.25;;
44328;SDS011;30039;51.462;6.892;2023-04-15T02:49:10;10.57;;;6.82;;
44328;SDS011;30039;51.462;6.892;2023-04-15T02:51:56;10.77;;;7.15;;
44328;SDS011;30039;51.462;6.892;2023-04-15T02:54:44;9.82;;;6.82;;
44328;SDS011;30039;51.462;6.892;2023-04-15T02:57:30;9.20;;;6.30;;
44328;SDS011;30039;51.462;6.892;2023-04-15T03:00:16;11.18;;;6.70;;
44328;SDS011;30039;51.462;6.892;2023-04-15T03:03:02;10.48;;;6.60;;
44328;SDS011;30039;51.462;6.892;2023-04-15T03:05:48;10.45;;;7.07;;
44328;SDS011;30039;51.462;6.892;2023-04-15T03:08:34;9.93;;;6.70;;
44328;SDS011;30039;51.462;6.892;2023-04-15T03:11:19;10.60;;;6.63;;
44328;SDS011;30039;51.462;6.892;2023-04-15T03:14:05;9.50;;;6.43;;
44328;SDS011;30039;51.462;6.892;2023-04-15T03:16:51;11.27;;;6.38;;
44328;SDS011;30039;51.462;6.892;2023-04-15T03:19:37;10.35;;;6.57;;
44328;SDS011;30039;51.462;6.892;2023-04-15T03:22:23;11.15;;;6.68;;
44328;SDS011;30039;51.462;6.892;2023-04-15T03:25:09;11.55;;;6.78;;
44328;SDS011;30039;51.462;6.892;2023-04-15T03:27:56;10.75;;;6.18;;
44328;SDS011;30039;51.462;6.892;2023-04-15T03:30:43;10.23;;;6.18;;
44328;SDS011;30039;51.462;6.892;2023-04-15T03:33:29;9.93;;;6.20;;
44328;SDS011;30039;51.462;6.892;2023-04-15T03:36:15;10.35;;;6.07;;
44328;SDS011;30039;51.462;6.892;2023-04-15T03:39:01;9.57;;;6.05;;
44328;SDS011;30039;51.462;6.892;2023-04-15T03:41:47;9.40;;;6.43;;
44328;SDS011;30039;51.462;6.892;2023-04-15T03:44:33;9.10;;;6.47;;
44328;SDS011;30039;51.462;6.892;2023-04-15T03:47:20;12.68;;;6.78;;
44328;SDS011;30039;51.462;6.892;2023-04-15T03:50:06;11.73;;;6.25;;
44328;SDS011;30039;51.462;6.892;2023-04-15T03:52:52;13.77;;;6.65;;
44328;SDS011;30039;51.462;6.892;2023-04-15T03:55:37;11.52;;;6.90;;
44328;SDS011;30039;51.462;6.892;2023-04-15T03:58:24;13.55;;;6.50;;
44328;SDS011;30039;51.462;6.892;2023-04-15T04:01:10;8.85;;;5.97;;
44328;SDS011;30039;51.462;6.892;2023-04-15T04:03:56;12.07;;;6.28;;
44328;SDS011;30039;51.462;6.892;2023-04-15T04:06:41;11.20;;;5.75;;
44328;SDS011;30039;51.462;6.892;2023-04-15T04:09:27;7.88;;;5.55;;
44328;SDS011;30039;51.462;6.892;2023-04-15T04:12:13;9.10;;;6.20;;
44328;SDS011;30039;51.462;6.892;2023-04-15T04:14:59;10.18;;;6.35;;
44328;SDS011;30039;51.462;6.892;2023-04-15T04:17:48;12.70;;;6.28;;
44328;SDS011;30039;51.462;6.892;2023-04-15T04:20:34;13.60;;;6.63;;
44328;SDS011;30039;51.462;6.892;2023-04-15T04:23:19;10.90;;;6.28;;
44328;SDS011;30039;51.462;6.892;2023-04-15T04:26:05;11.38;;;6.25;;
44328;SDS011;30039;51.462;6.892;2023-04-15T04:28:51;10.27;;;6.57;;
44328;SDS011;30039;51.462;6.892;2023-04-15T04:31:37;9.52;;;6.22;;
44328;SDS011;30039;51.462;6.892;2023-04-15T04:34:23;10.18;;;6.38;;
44328;SDS011;30039;51.462;6.892;2023-04-15T04:37:08;10.38;;;6.25;;
44328;SDS011;30039;51.462;6.892;2023-04-15T04:39:54;10.00;;;6.15;;
44328;SDS011;30039;51.462;6.892;2023-04-15T04:42:40;10.25;;;5.95;;
44328;SDS011;30039;51.462;6.892;2023-04-15T04:45:26;9.93;;;6.50;;
44328;SDS011;30039;51.462;6.892;2023-04-15T04:48:12;9.57;;;6.43;;
44328;SDS011;30039;51.462;6.892;2023-04-15T04:50:57;10.02;;;6.13;;
44328;SDS011;30039;51.462;6.892;2023-04-15T04:53:43;9.52;;;6.50;;
44328;SDS011;30039;51.462;6.892;2023-04-15T04:56:29;10.50;;;6.65;;
44328;SDS011;30039;51.462;6.892;2023-04-15T04:59:16;11.85;;;6.80;;
44328;SDS011;30039;51.462;6.892;2023-04-15T05:02:02;10.50;;;6.65;;
44328;SDS011;30039;51.462;6.892;2023-04-15T05:04:48;10.38;;;6.72;;
44328;SDS011;30039;51.462;6.892;2023-04-15T05:07:36;13.00;;;6.80;;
44328;SDS011;30039;51.462;6.892;2023-04-15T05:10:22;11.23;;;6.72;;
44328;SDS011;30039;51.462;6.892;2023-04-15T05:13:08;10.65;;;6.45;;
44328;SDS011;30039;51.462;6.892;2023-04-15T05:15:54;10.52;;;6.50;;
44328;SDS011;30039;51.462;6.892;2023-04-15T05:18:39;11.07;;;6.95;;
44328;SDS011;30039;51.462;6.892;2023-04-15T05:21:25;10.88;;;6.38;;
44328;SDS011;30039;51.462;6.892;2023-04-15T05:27:02;11.25;;;6.65;;
44328;SDS011;30039;51.462;6.892;2023-04-15T05:29:48;13.60;;;6.40;;
44328;SDS011;30039;51.462;6.892;2023-04-15T05:32:33;11.38;;;7.13;;
44328;SDS011;30039;51.462;6.892;2023-04-15T05:35:19;13.00;;;7.55;;
44328;SDS011;30039;51.462;6.892;2023-04-15T05:38:06;12.52;;;6.70;;
44328;SDS011;30039;51.462;6.892;2023-04-15T05:40:52;10.07;;;7.53;;
44328;SDS011;30039;51.462;6.892;2023-04-15T05:43:37;12.75;;;7.35;;
44328;SDS011;30039;51.462;6.892;2023-04-15T05:46:23;16.42;;;7.63;;
44328;SDS011;30039;51.462;6.892;2023-04-15T05:49:09;12.40;;;7.43;;
44328;SDS011;30039;51.462;6.892;2023-04-15T05:51:55;12.25;;;7.95;;
44328;SDS011;30039;51.462;6.892;2023-04-15T05:54:42;12.95;;;8.55;;
44328;SDS011;30039;51.462;6.892;2023-04-15T05:57:28;10.93;;;7.30;;
44328;SDS011;30039;51.462;6.892;2023-04-15T06:00:14;12.45;;;8.25;;
44328;SDS011;30039;51.462;6.892;2023-04-15T06:03:00;12.10;;;8.13;;
44328;SDS011;30039;51.462;6.892;2023-04-15T06:05:48;13.98;;;7.97;;
44328;SDS011;30039;51.462;6.892;2023-04-15T06:08:34;11.88;;;7.97;;
44328;SDS011;30039;51.462;6.892;2023-04-15T06:11:20;10.70;;;7.55;;
44328;SDS011;30039;51.462;6.892;2023-04-15T06:14:06;12.38;;;8.43;;
44328;SDS011;30039;51.462;6.892;2023-04-15T06:16:52;12.30;;;8.07;;
44328;SDS011;30039;51.462;6.892;2023-04-15T06:19:38;14.98;;;7.88;;
44328;SDS011;30039;51.462;6.892;2023-04-15T06:22:25;12.52;;;7.88;;
44328;SDS011;30039;51.462;6.892;2023-04-15T06:25:10;11.73;;;7.90;;
44328;SDS011;30039;51.462;6.892;2023-04-15T06:27:56;14.77;;;8.48;;
44328;SDS011;30039;51.462;6.892;2023-04-15T06:30:42;11.45;;;7.78;;
44328;SDS011;30039;51.462;6.892;2023-04-15T06:33:28;10.77;;;7.50;;
44328;SDS011;30039;51.462;6.892;2023-04-15T06:36:14;11.80;;;7.65;;
44328;SDS011;30039;51.462;6.892;2023-04-15T06:39:00;11.88;;;7.22;;
44328;SDS011;30039;51.462;6.892;2023-04-15T06:41:48;10.05;;;6.57;;
44328;SDS011;30039;51.462;6.892;2023-04-15T06:44:33;12.57;;;7.03;;
44328;SDS011;30039;51.462;6.892;2023-04-15T06:47:21;13.07;;;7.30;;
44328;SDS011;30039;51.462;6.892;2023-04-15T06:50:07;11.73;;;6.78;;
44328;SDS011;30039;51.462;6.892;2023-04-15T06:52:54;9.85;;;6.80;;
44328;SDS011;30039;51.462;6.892;2023-04-15T06:55:41;12.75;;;7.25;;
44328;SDS011;30039;51.462;6.892;2023-04-15T06:58:27;11.20;;;7.30;;
44328;SDS011;30039;51.462;6.892;2023-04-15T07:01:12;12.00;;;7.95;;
44328;SDS011;30039;51.462;6.892;2023-04-15T07:03:58;10.80;;;6.18;;
44328;SDS011;30039;51.462;6.892;2023-04-15T07:06:44;10.80;;;7.10;;
44328;SDS011;30039;51.462;6.892;2023-04-15T07:09:30;13.23;;;6.75;;
44328;SDS011;30039;51.462;6.892;2023-04-15T07:15:09;11.95;;;6.72;;
44328;SDS011;30039;51.462;6.892;2023-04-15T07:17:55;10.40;;;6.93;;
44328;SDS011;30039;51.462;6.892;2023-04-15T07:20:41;11.75;;;6.82;;
44328;SDS011;30039;51.462;6.892;2023-04-15T07:23:27;11.27;;;6.28;;
44328;SDS011;30039;51.462;6.892;2023-04-15T07:26:13;9.68;;;6.15;;
44328;SDS011;30039;51.462;6.892;2023-04-15T07:28:59;9.27;;;6.18;;
44328;SDS011;30039;51.462;6.892;2023-04-15T07:31:45;9.50;;;6.20;;
44328;SDS011;30039;51.462;6.892;2023-04-15T07:34:31;12.00;;;6.40;;
44328;SDS011;30039;51.462;6.892;2023-04-15T07:37:18;10.48;;;6.38;;
44328;SDS011;30039;51.462;6.892;2023-04-15T07:40:04;10.55;;;5.40;;
44328;SDS011;30039;51.462;6.892;2023-04-15T07:42:52;7.82;;;5.13;;
44328;SDS011;30039;51.462;6.892;2023-04-15T07:45:37;7.30;;;4.80;;
44328;SDS011;30039;51.462;6.892;2023-04-15T07:48:23;7.88;;;5.40;;
44328;SDS011;30039;51.462;6.892;2023-04-15T07:51:09;6.22;;;4.63;;
44328;SDS011;30039;51.462;6.892;2023-04-15T07:53:55;7.18;;;4.43;;
44328;SDS011;30039;51.462;6.892;2023-04-15T07:56:41;7.57;;;4.18;;
44328;SDS011;30039;51.462;6.892;2023-04-15T07:59:26;5.53;;;3.80;;
44328;SDS011;30039;51.462;6.892;2023-04-15T08:02:27;5.38;;;3.55;;
44328;SDS011;30039;51.462;6.892;2023-04-15T08:05:13;6.93;;;4.05;;
44328;SDS011;30039;51.462;6.892;2023-04-15T08:07:59;5.63;;;4.10;;
44328;SDS011;30039;51.462;6.892;2023-04-15T08:10:45;7.10;;;3.92;;
44328;SDS011;30039;51.462;6.892;2023-04-15T08:13:31;6.30;;;3.80;;
44328;SDS011;30039;51.462;6.892;2023-04-15T08:16:18;7.78;;;4.30;;
44328;SDS011;30039;51.462;6.892;2023-04-15T08:19:05;7.32;;;4.57;;
44328;SDS011;30039;51.462;6.892;2023-04-15T08:21:51;7.75;;;4.53;;
44328;SDS011;30039;51.462;6.892;2023-04-15T08:24:36;5.70;;;3.30;;
44328;SDS011;30039;51.462;6.892;2023-04-15T08:27:23;5.95;;;2.70;;
44328;SDS011;30039;51.462;6.892;2023-04-15T08:30:09;5.32;;;3.33;;
44328;SDS011;30039;51.462;6.892;2023-04-15T08:32:54;4.40;;;3.00;;
44328;SDS011;30039;51.462;6.892;2023-04-15T08:35:49;6.97;;;3.70;;
44328;SDS011;30039;51.462;6.892;2023-04-15T08:38:35;5.25;;;3.22;;
44328;SDS011;30039;51.462;6.892;2023-04-15T08:41:22;4.35;;;3.17;;
44328;SDS011;30039;51.462;6.892;2023-04-15T08:44:08;9.88;;;3.60;;
44328;SDS011;30039;51.462;6.892;2023-04-15T08:46:55;5.15;;;3.53;;
44328;SDS011;30039;51.462;6.892;2023-04-15T08:49:41;6.22;;;3.72;;
44328;SDS011;30039;51.462;6.892;2023-04-15T08:52:29;24.33;;;5.72;;
44328;SDS011;30039;51.462;6.892;2023-04-15T08:55:15;10.18;;;3.10;;
44328;SDS011;30039;51.462;6.892;2023-04-15T08:58:01;7.72;;;2.60;;
44328;SDS011;30039;51.462;6.892;2023-04-15T09:00:47;5.15;;;2.28;;
44328;SDS011;30039;51.462;6.892;2023-04-15T09:03:34;6.70;;;2.47;;
44328;SDS011;30039;51.462;6.892;2023-04-15T09:06:22;3.85;;;2.47;;
44328;SDS011;30039;51.462;6.892;2023-04-15T09:09:07;4.53;;;2.55;;
44328;SDS011;30039;51.462;6.892;2023-04-15T09:11:53;3.80;;;2.35;;
44328;SDS011;30039;51.462;6.892;2023-04-15T09:14:40;22.83;;;4.00;;
44328;SDS011;30039;51.462;6.892;2023-04-15T09:17:26;3.95;;;2.55;;
44328;SDS011;30039;51.462;6.892;2023-04-15T09:20:12;3.60;;;2.33;;
44328;SDS011;30039;51.462;6.892;2023-04-15T09:22:59;3.67;;;2.30;;
44328;SDS011;30039;51.462;6.892;2023-04-15T09:25:45;5.30;;;3.05;;
44328;SDS011;30039;51.462;6.892;2023-04-15T09:28:31;4.85;;;2.97;;
44328;SDS011;30039;51.462;6.892;2023-04-15T09:31:17;5.55;;;3.25;;
44328;SDS011;30039;51.462;6.892;2023-04-15T09:34:03;4.07;;;2.67;;
44328;SDS011;30039;51.462;6.892;2023-04-15T09:39:50;5.70;;;3.47;;
44328;SDS011;30039;51.462;6.892;2023-04-15T09:42:58;6.43;;;3.15;;
44328;SDS011;30039;51.462;6.892;2023-04-15T09:45:51;5.43;;;3.03;;
44328;SDS011;30039;51.462;6.892;2023-04-15T09:48:37;4.38;;;2.90;;
44328;SDS011;30039;51.462;6.892;2023-04-15T09:51:32;4.53;;;3.22;;
44328;SDS011;30039;51.462;6.892;2023-04-15T09:54:18;4.90;;;3.20;;
44328;SDS011;30039;51.462;6.892;2023-04-15T09:57:07;3.75;;;2.88;;
44328;SDS011;30039;51.462;6.892;2023-04-15T09:59:53;3.38;;;2.45;;
44328;SDS011;30039;51.462;6.892;2023-04-15T10:02:39;4.05;;;3.00;;
44328;SDS011;30039;51.462;6.892;2023-04-15T10:05:26;3.70;;;2.85;;
44328;SDS011;30039;51.462;6.892;2023-04-15T10:08:12;5.38;;;3.63;;
44328;SDS011;30039;51.462;6.892;2023-04-15T10:10:58;6.95;;;3.58;;
44328;SDS011;30039;51.462;6.892;2023-04-15T10:13:45;6.40;;;3.38;;
44328;SDS011;30039;51.462;6.892;2023-04-15T10:16:31;5.35;;;3.65;;
44328;SDS011;30039;51.462;6.892;2023-04-15T10:19:18;9.98;;;3.33;;
44328;SDS011;30039;51.462;6.892;2023-04-15T10:22:06;5.22;;;3.15;;
44328;SDS011;30039;51.462;6.892;2023-04-15T10:24:54;4.80;;;3.05;;
44328;SDS011;30039;51.462;6.892;2023-04-15T10:27:41;4.50;;;2.38;;
44328;SDS011;30039;51.462;6.892;2023-04-15T10:30:27;5.18;;;3.15;;
44328;SDS011;30039;51.462;6.892;2023-04-15T10:33:13;4.75;;;3.60;;
44328;SDS011;30039;51.462;6.892;2023-04-15T10:36:02;3.80;;;3.00;;
44328;SDS011;30039;51.462;6.892;2023-04-15T10:38:48;5.40;;;3.60;;
44328;SDS011;30039;51.462;6.892;2023-04-15T10:41:36;6.22;;;3.17;;
44328;SDS011;30039;51.462;6.892;2023-04-15T10:44:22;4.20;;;2.80;;
44328;SDS011;30039;51.462;6.892;2023-04-15T10:47:12;3.88;;;2.72;;
44328;SDS011;30039;51.462;6.892;2023-04-15T10:49:58;4.82;;;2.80;;
44328;SDS011;30039;51.462;6.892;2023-04-15T10:52:44;4.63;;;2.80;;
44328;SDS011;30039;51.462;6.892;2023-04-15T10:55:31;6.00;;;3.72;;
44328;SDS011;30039;51.462;6.892;2023-04-15T10:58:17;6.95;;;3.80;;
44328;SDS011;30039;51.462;6.892;2023-04-15T11:01:03;6.65;;;3.83;;
44328;SDS011;30039;51.462;6.892;2023-04-15T11:03:49;4.70;;;3.10;;
44328;SDS011;30039;51.462;6.892;2023-04-15T11:06:45;4.30;;;2.70;;
44328;SDS011;30039;51.462;6.892;2023-04-15T11:09:31;3.53;;;2.40;;
44328;SDS011;30039;51.462;6.892;2023-04-15T11:12:21;4.38;;;2.45;;
44328;SDS011;30039;51.462;6.892;2023-04-15T11:21:55;4.82;;;3.00;;
44328;SDS011;30039;51.462;6.892;2023-04-15T11:24:47;4.90;;;2.92;;
44328;SDS011;30039;51.462;6.892;2023-04-15T11:27:36;5.47;;;2.72;;
44328;SDS011;30039;51.462;6.892;2023-04-15T11:30:23;4.20;;;2.53;;
44328;SDS011;30039;51.462;6.892;2023-04-15T11:33:09;5.10;;;2.80;;
44328;SDS011;30039;51.462;6.892;2023-04-15T11:35:56;4.40;;;2.83;;
44328;SDS011;30039;51.462;6.892;2023-04-15T11:38:45;4.70;;;2.47;;
44328;SDS011;30039;51.462;6.892;2023-04-15T11:41:31;3.92;;;2.90;;
44328;SDS011;30039;51.462;6.892;2023-04-15T11:44:17;5.43;;;2.40;;
44328;SDS011;30039;51.462;6.892;2023-04-15T11:47:20;4.78;;;2.28;;
44328;SDS011;30039;51.462;6.892;2023-04-15T11:50:16;3.33;;;2.10;;
44328;SDS011;30039;51.462;6.892;2023-04-15T11:53:03;4.78;;;2.42;;
44328;SDS011;30039;51.462;6.892;2023-04-15T11:55:50;3.97;;;2.35;;
44328;SDS011;30039;51.462;6.892;2023-04-15T11:58:36;5.70;;;2.90;;
44328;SDS011;30039;51.462;6.892;2023-04-15T12:07:07;5.38;;;3.08;;
44328;SDS011;30039;51.462;6.892;2023-04-15T12:09:56;5.20;;;3.10;;
44328;SDS011;30039;51.462;6.892;2023-04-15T12:12:43;1.92;;;1.17;;
44328;SDS011;30039;51.462;6.892;2023-04-15T12:15:36;3.25;;;1.77;;
44328;SDS011;30039;51.462;6.892;2023-04-15T12:18:22;6.47;;;3.30;;
44328;SDS011;30039;51.462;6.892;2023-04-15T12:21:10;4.50;;;2.72;;
44328;SDS011;30039;51.462;6.892;2023-04-15T12:23:56;4.38;;;2.63;;
44328;SDS011;30039;51.462;6.892;2023-04-15T12:26:43;3.58;;;2.25;;
44328;SDS011;30039;51.462;6.892;2023-04-15T12:29:30;3.80;;;2.20;;
44328;SDS011;30039;51.462;6.892;2023-04-15T12:32:16;5.15;;;2.75;;
44328;SDS011;30039;51.462;6.892;2023-04-15T12:35:05;4.05;;;2.20;;
44328;SDS011;30039;51.462;6.892;2023-04-15T12:37:51;3.75;;;2.20;;
44328;SDS011;30039;51.462;6.892;2023-04-15T12:40:37;4.18;;;2.40;;
44328;SDS011;30039;51.462;6.892;2023-04-15T12:43:23;3.03;;;2.30;;
44328;SDS011;30039;51.462;6.892;2023-04-15T12:46:09;5.00;;;2.45;;
44328;SDS011;30039;51.462;6.892;2023-04-15T12:48:55;4.03;;;2.40;;
44328;SDS011;30039;51.462;6.892;2023-04-15T12:51:41;3.70;;;2.38;;
44328;SDS011;30039;51.462;6.892;2023-04-15T12:54:27;3.45;;;2.22;;
44328;SDS011;30039;51.462;6.892;2023-04-15T12:57:16;4.30;;;2.45;;
44328;SDS011;30039;51.462;6.892;2023-04-15T13:00:02;4.10;;;2.47;;
44328;SDS011;30039;51.462;6.892;2023-04-15T13:02:52;3.53;;;2.38;;
44328;SDS011;30039;51.462;6.892;2023-04-15T13:05:39;4.45;;;2.58;;
44328;SDS011;30039;51.462;6.892;2023-04-15T13:08:25;4.68;;;2.53;;
44328;SDS011;30039;51.462;6.892;2023-04-15T13:11:11;6.18;;;3.15;;
44328;SDS011;30039;51.462;6.892;2023-04-15T13:14:02;3.88;;;2.45;;
44328;SDS011;30039;51.462;6.892;2023-04-15T13:16:48;4.55;;;2.58;;
44328;SDS011;30039;51.462;6.892;2023-04-15T13:19:37;3.90;;;2.60;;
44328;SDS011;30039;51.462;6.892;2023-04-15T13:22:23;3.15;;;2.33;;
44328;SDS011;30039;51.462;6.892;2023-04-15T13:25:09;6.90;;;3.13;;
44328;SDS011;30039;51.462;6.892;2023-04-15T13:27:54;5.47;;;2.28;;
44328;SDS011;30039;51.462;6.892;2023-04-15T13:30:43;4.38;;;2.60;;
44328;SDS011;30039;51.462;6.892;2023-04-15T13:33:28;6.47;;;2.83;;
44328;SDS011;30039;51.462;6.892;2023-04-15T13:36:14;3.80;;;2.30;;
44328;SDS011;30039;51.462;6.892;2023-04-15T13:39:00;3.83;;;2.53;;
44328;SDS011;30039;51.462;6.892;2023-04-15T13:41:46;4.20;;;2.42;;
44328;SDS011;30039;51.462;6.892;2023-04-15T13:44:33;4.90;;;2.42;;
44328;SDS011;30039;51.462;6.892;2023-04-15T13:47:18;6.85;;;2.63;;
44328;SDS011;30039;51.462;6.892;2023-04-15T13:50:04;4.15;;;2.30;;
44328;SDS011;30039;51.462;6.892;2023-04-15T13:52:50;3.05;;;2.22;;
44328;SDS011;30039;51.462;6.892;2023-04-15T13:55:36;5.68;;;2.20;;
44328;SDS011;30039;51.462;6.892;2023-04-15T13:58:25;4.25;;;2.78;;
44328;SDS011;30039;51.462;6.892;2023-04-15T14:01:11;3.55;;;2.10;;
44328;SDS011;30039;51.462;6.892;2023-04-15T14:03:57;2.47;;;2.00;;
44328;SDS011;30039;51.462;6.892;2023-04-15T14:06:42;4.93;;;2.00;;
44328;SDS011;30039;51.462;6.892;2023-04-15T14:09:28;4.55;;;2.17;;
44328;SDS011;30039;51.462;6.892;2023-04-15T14:12:14;3.30;;;1.90;;
44328;SDS011;30039;51.462;6.892;2023-04-15T14:15:00;3.65;;;2.28;;
44328;SDS011;30039;51.462;6.892;2023-04-15T14:17:46;2.42;;;1.75;;
44328;SDS011;30039;51.462;6.892;2023-04-15T14:20:33;4.97;;;2.53;;
44328;SDS011;30039;51.462;6.892;2023-04-15T14:23:19;5.25;;;2.22;;
44328;SDS011;30039;51.462;6.892;2023-04-15T14:26:04;4.50;;;2.00;;
44328;SDS011;30039;51.462;6.892;2023-04-15T14:28:50;3.85;;;2.42;;
44328;SDS011;30039;51.462;6.892;2023-04-15T14:31:37;2.58;;;1.70;;
44328;SDS011;30039;51.462;6.892;2023-04-15T14:34:23;3.88;;;2.10;;
44328;SDS011;30039;51.462;6.892;2023-04-15T14:37:09;2.85;;;2.15;;
44328;SDS011;30039;51.462;6.892;2023-04-15T14:39:55;3.33;;;1.85;;
44328;SDS011;30039;51.462;6.892;2023-04-15T14:42:41;3.38;;;2.33;;
44328;SDS011;30039;51.462;6.892;2023-04-15T14:45:26;6.43;;;2.00;;
44328;SDS011;30039;51.462;6.892;2023-04-15T14:48:12;4.50;;;2.00;;
44328;SDS011;30039;51.462;6.892;2023-04-15T14:50:58;3.97;;;2.03;;
44328;SDS011;30039;51.462;6.892;2023-04-15T14:53:44;4.68;;;2.10;;
44328;SDS011;30039;51.462;6.892;2023-04-15T14:56:30;3.25;;;2.05;;
44328;SDS011;30039;51.462;6.892;2023-04-15T14:59:16;3.00;;;1.92;;
44328;SDS011;30039;51.462;6.892;2023-04-15T15:02:02;3.30;;;1.92;;
44328;SDS011;30039;51.462;6.892;2023-04-15T15:04:48;3.45;;;1.73;;
44328;SDS011;30039;51.462;6.892;2023-04-15T15:07:33;4.18;;;2.08;;
44328;SDS011;30039;51.462;6.892;2023-04-15T15:10:21;2.38;;;1.73;;
44328;SDS011;30039;51.462;6.892;2023-04-15T15:13:07;2.97;;;2.15;;
44328;SDS011;30039;51.462;6.892;2023-04-15T15:15:53;3.03;;;1.80;;
44328;SDS011;30039;51.462;6.892;2023-04-15T15:18:38;3.58;;;1.92;;
44328;SDS011;30039;51.462;6.892;2023-04-15T15:21:24;5.63;;;2.40;;
44328;SDS011;30039;51.462;6.892;2023-04-15T15:24:12;5.50;;;2.78;;
44328;SDS011;30039;51.462;6.892;2023-04-15T15:26:59;3.50;;;2.03;;
44328;SDS011;30039;51.462;6.892;2023-04-15T15:29:44;4.45;;;2.17;;
44328;SDS011;30039;51.462;6.892;2023-04-15T15:32:30;4.53;;;2.50;;
44328;SDS011;30039;51.462;6.892;2023-04-15T15:35:16;3.53;;;2.03;;
44328;SDS011;30039;51.462;6.892;2023-04-15T15:38:02;5.47;;;2.38;;
44328;SDS011;30039;51.462;6.892;2023-04-15T15:40:47;3.25;;;2.17;;
44328;SDS011;30039;51.462;6.892;2023-04-15T15:43:33;3.72;;;2.00;;
44328;SDS011;30039;51.462;6.892;2023-04-15T15:46:19;2.92;;;2.00;;
44328;SDS011;30039;51.462;6.892;2023-04-15T15:49:06;3.42;;;2.10;;
44328;SDS011;30039;51.462;6.892;2023-04-15T15:51:51;3.00;;;1.73;;
44328;SDS011;30039;51.462;6.892;2023-04-15T15:54:38;2.85;;;2.00;;
44328;SDS011;30039;51.462;6.892;2023-04-15T15:57:24;7.18;;;3.40;;
44328;SDS011;30039;51.462;6.892;2023-04-15T16:00:09;3.38;;;2.00;;
44328;SDS011;30039;51.462;6.892;2023-04-15T16:02:55;3.97;;;2.00;;
44328;SDS011;30039;51.462;6.892;2023-04-15T16:05:42;2.53;;;1.98;;
44328;SDS011;30039;51.462;6.892;2023-04-15T16:08:30;6.95;;;2.30;;
44328;SDS011;30039;51.462;6.892;2023-04-15T16:11:16;5.15;;;2.63;;
44328;SDS011;30039;51.462;6.892;2023-04-15T16:14:02;4.05;;;2.40;;
44328;SDS011;30039;51.462;6.892;2023-04-15T16:16:49;4.43;;;1.98;;
44328;SDS011;30039;51.462;6.892;2023-04-15T16:19:35;2.85;;;1.67;;
44328;SDS011;30039;51.462;6.892;2023-04-15T16:22:20;3.83;;;2.25;;
44328;SDS011;30039;51.462;6.892;2023-04-15T16:25:06;5.93;;;2.00;;
44328;SDS011;30039;51.462;6.892;2023-04-15T16:27:52;4.95;;;3.20;;
44328;SDS011;30039;51.462;6.892;2023-04-15T16:30:39;4.10;;;2.28;;
44328;SDS011;30039;51.462;6.892;2023-04-15T16:33:26;3.42;;;2.60;;
44328;SDS011;30039;51.462;6.892;2023-04-15T16:36:12;4.35;;;2.72;;
44328;SDS011;30039;51.462;6.892;2023-04-15T16:38:58;3.42;;;2.05;;
44328;SDS011;30039;51.462;6.892;2023-04-15T16:41:43;8.02;;;2.65;;
44328;SDS011;30039;51.462;6.892;2023-04-15T16:44:29;5.70;;;2.40;;
44328;SDS011;30039;51.462;6.892;2023-04-15T16:47:15;3.03;;;2.20;;
44328;SDS011;30039;51.462;6.892;2023-04-15T16:50:01;5.45;;;2.42;;
44328;SDS011;30039;51.462;6.892;2023-04-15T16:52:47;5.22;;;2.20;;
44328;SDS011;30039;51.462;6.892;2023-04-15T16:55:32;6.13;;;2.45;;
44328;SDS011;30039;51.462;6.892;2023-04-15T16:58:18;4.07;;;2.40;;
44328;SDS011;30039;51.462;6.892;2023-04-15T17:01:04;5.53;;;2.90;;